sensor_id;sensor_type;location;lat;lon;timestamp;temperature;humidity
11609;DHT22;5860;52.018;8.536;2023-01-10T00:01:56;6.00;99.90
11609;DHT22;5860;52.018;8.536;2023-01-10T00:04:23;6.00;99.90
11609;DHT22;5860;52.018;8.536;2023-01-10T00:06:54;5.90;99.90
11609;DHT22;5860;52.018;8.536;2023-01-10T00:09:21;5.80;99.90
11609;DHT22;5860;52.018;8.536;2023-01-10T00:11:48;5.80;99.90
11609;DHT22;5860;52.018;8.536;2023-01-10T00:14:34;5.70;99.90
11609;DHT22;5860;52.018;8.536;2023-01-10T00:17:01;5.60;99.90
11609;DHT22;5860;52.018;8.536;2023-01-10T00:19:29;5.60;99.90
11609;DHT22;5860;52.018;8.536;2023-01-10T00:21:56;5.60;99.90
11609;DHT22;5860;52.018;8.536;2023-01-10T00:24:23;5.50;99.90
11609;DHT22;5860;52.018;8.536;2023-01-10T00:26:51;5.40;99.90
11609;DHT22;5860;52.018;8.536;2023-01-10T00:29:18;5.40;99.90
11609;DHT22;5860;52.018;8.536;2023-01-10T00:31:46;5.40;99.90
11609;DHT22;5860;52.018;8.536;2023-01-10T00:34:13;5.30;99.90
11609;DHT22;5860;52.018;8.536;2023-01-10T00:36:40;5.30;99.90
11609;DHT22;5860;52.018;8.536;2023-01-10T00:39:08;5.30;99.90
11609;DHT22;5860;52.018;8.536;2023-01-10T00:41:37;5.20;99.90
11609;DHT22;5860;52.018;8.536;2023-01-10T00:44:22;5.20;99.90
11609;DHT22;5860;52.018;8.536;2023-01-10T00:46:49;5.20;99.90
11609;DHT22;5860;52.018;8.536;2023-01-10T00:49:16;5.20;99.90
11609;DHT22;5860;52.018;8.536;2023-01-10T00:51:43;5.20;99.90
11609;DHT22;5860;52.018;8.536;2023-01-10T00:54:12;5.30;99.90
11609;DHT22;5860;52.018;8.536;2023-01-10T00:56:39;5.40;99.90
11609;DHT22;5860;52.018;8.536;2023-01-10T00:59:06;5.40;99.90
11609;DHT22;5860;52.018;8.536;2023-01-10T01:01:33;5.50;99.90
11609;DHT22;5860;52.018;8.536;2023-01-10T01:04:00;5.50;99.90
11609;DHT22;5860;52.018;8.536;2023-01-10T01:06:27;5.50;99.90
11609;DHT22;5860;52.018;8.536;2023-01-10T01:08:54;5.60;99.90
11609;DHT22;5860;52.018;8.536;2023-01-10T01:11:20;5.60;99.90
11609;DHT22;5860;52.018;8.536;2023-01-10T01:13:47;5.60;99.90
11609;DHT22;5860;52.018;8.536;2023-01-10T01:16:14;5.60;99.90
11609;DHT22;5860;52.018;8.536;2023-01-10T01:18:41;5.60;99.90
11609;DHT22;5860;52.018;8.536;2023-01-10T01:21:08;5.70;99.90
11609;DHT22;5860;52.018;8.536;2023-01-10T01:23:35;5.70;99.90
11609;DHT22;5860;52.018;8.536;2023-01-10T01:26:02;5.70;99.90
11609;DHT22;5860;52.018;8.536;2023-01-10T01:28:29;5.70;99.90
11609;DHT22;5860;52.018;8.536;2023-01-10T01:30:56;5.70;99.90
11609;DHT22;5860;52.018;8.536;2023-01-10T01:33:23;5.80;99.90
11609;DHT22;5860;52.018;8.536;2023-01-10T01:35:50;5.80;99.90
11609;DHT22;5860;52.018;8.536;2023-01-10T01:38:17;5.80;99.90
11609;DHT22;5860;52.018;8.536;2023-01-10T01:40:45;5.80;99.90
11609;DHT22;5860;52.018;8.536;2023-01-10T01:43:57;5.80;99.90
11609;DHT22;5860;52.018;8.536;2023-01-10T01:46:24;5.80;99.90
11609;DHT22;5860;52.018;8.536;2023-01-10T01:48:51;5.90;99.90
11609;DHT22;5860;52.018;8.536;2023-01-10T01:51:22;5.90;99.90
11609;DHT22;5860;52.018;8.536;2023-01-10T01:53:58;5.90;99.90
11609;DHT22;5860;52.018;8.536;2023-01-10T01:56:38;6.00;99.90
11609;DHT22;5860;52.018;8.536;2023-01-10T01:59:21;6.00;99.90
11609;DHT22;5860;52.018;8.536;2023-01-10T02:01:52;6.00;99.90
11609;DHT22;5860;52.018;8.536;2023-01-10T02:04:27;6.00;99.90
11609;DHT22;5860;52.018;8.536;2023-01-10T02:06:56;6.10;99.90
11609;DHT22;5860;52.018;8.536;2023-01-10T02:12:15;6.10;99.90
11609;DHT22;5860;52.018;8.536;2023-01-10T02:14:44;6.10;99.90
11609;DHT22;5860;52.018;8.536;2023-01-10T02:17:11;6.10;99.90
11609;DHT22;5860;52.018;8.536;2023-01-10T02:19:53;6.10;99.90
11609;DHT22;5860;52.018;8.536;2023-01-10T02:36:09;5.90;99.90
11609;DHT22;5860;52.018;8.536;2023-01-10T02:39:04;5.90;99.90
11609;DHT22;5860;52.018;8.536;2023-01-10T02:41:53;5.90;99.90
11609;DHT22;5860;52.018;8.536;2023-01-10T02:44:49;5.90;99.90
11609;DHT22;5860;52.018;8.536;2023-01-10T02:47:19;5.90;99.90
11609;DHT22;5860;52.018;8.536;2023-01-10T02:49:48;5.90;99.90
11609;DHT22;5860;52.018;8.536;2023-01-10T02:52:20;5.80;99.90
11609;DHT22;5860;52.018;8.536;2023-01-10T02:54:50;5.90;99.90
11609;DHT22;5860;52.018;8.536;2023-01-10T03:03:46;5.80;99.90
11609;DHT22;5860;52.018;8.536;2023-01-10T03:11:17;5.80;99.90
11609;DHT22;5860;52.018;8.536;2023-01-10T03:14:09;5.80;99.90
11609;DHT22;5860;52.018;8.536;2023-01-10T03:16:38;5.80;99.90
11609;DHT22;5860;52.018;8.536;2023-01-10T03:19:10;5.80;99.90
11609;DHT22;5860;52.018;8.536;2023-01-10T03:21:40;5.70;99.90
11609;DHT22;5860;52.018;8.536;2023-01-10T03:24:15;5.70;99.90
11609;DHT22;5860;52.018;8.536;2023-01-10T03:26:48;5.70;99.90
11609;DHT22;5860;52.018;8.536;2023-01-10T03:29:25;5.60;99.90
11609;DHT22;5860;52.018;8.536;2023-01-10T03:31:58;5.60;99.90
11609;DHT22;5860;52.018;8.536;2023-01-10T03:34:26;5.50;99.90
11609;DHT22;5860;52.018;8.536;2023-01-10T03:37:08;5.60;99.90
11609;DHT22;5860;52.018;8.536;2023-01-10T03:42:22;5.50;99.90
11609;DHT22;5860;52.018;8.536;2023-01-10T03:45:08;5.50;99.90
11609;DHT22;5860;52.018;8.536;2023-01-10T03:47:41;5.50;99.90
11609;DHT22;5860;52.018;8.536;2023-01-10T03:50:21;5.50;99.90
11609;DHT22;5860;52.018;8.536;2023-01-10T03:52:49;5.40;99.90
11609;DHT22;5860;52.018;8.536;2023-01-10T03:55:21;5.50;99.90
11609;DHT22;5860;52.018;8.536;2023-01-10T03:57:49;5.50;99.90
11609;DHT22;5860;52.018;8.536;2023-01-10T04:00:16;5.50;99.90
11609;DHT22;5860;52.018;8.536;2023-01-10T04:02:44;5.50;99.90
11609;DHT22;5860;52.018;8.536;2023-01-10T04:05:11;5.60;99.90
11609;DHT22;5860;52.018;8.536;2023-01-10T04:07:38;5.50;99.90
11609;DHT22;5860;52.018;8.536;2023-01-10T04:10:06;5.50;99.90
11609;DHT22;5860;52.018;8.536;2023-01-10T04:12:34;5.40;99.90
11609;DHT22;5860;52.018;8.536;2023-01-10T04:15:01;5.40;99.90
11609;DHT22;5860;52.018;8.536;2023-01-10T04:17:28;5.40;99.90
11609;DHT22;5860;52.018;8.536;2023-01-10T04:19:55;5.40;99.90
11609;DHT22;5860;52.018;8.536;2023-01-10T04:22:22;5.40;99.90
11609;DHT22;5860;52.018;8.536;2023-01-10T04:24:49;5.50;99.90
11609;DHT22;5860;52.018;8.536;2023-01-10T04:27:17;5.60;99.90
11609;DHT22;5860;52.018;8.536;2023-01-10T04:29:45;5.60;99.90
11609;DHT22;5860;52.018;8.536;2023-01-10T04:32:12;5.60;99.90
11609;DHT22;5860;52.018;8.536;2023-01-10T04:34:39;5.60;99.90
11609;DHT22;5860;52.018;8.536;2023-01-10T04:37:06;5.50;99.90
11609;DHT22;5860;52.018;8.536;2023-01-10T04:39:32;5.60;99.90
11609;DHT22;5860;52.018;8.536;2023-01-10T04:41:59;5.50;99.90
11609;DHT22;5860;52.018;8.536;2023-01-10T04:44:26;5.50;99.90
11609;DHT22;5860;52.018;8.536;2023-01-10T04:46:53;5.40;99.90
11609;DHT22;5860;52.018;8.536;2023-01-10T04:49:20;5.40;99.90
11609;DHT22;5860;52.018;8.536;2023-01-10T04:51:48;5.40;99.90
11609;DHT22;5860;52.018;8.536;2023-01-10T04:54:19;5.40;99.90
11609;DHT22;5860;52.018;8.536;2023-01-10T04:56:46;5.30;99.90
11609;DHT22;5860;52.018;8.536;2023-01-10T04:59:13;5.40;99.90
11609;DHT22;5860;52.018;8.536;2023-01-10T05:01:40;5.40;99.90
11609;DHT22;5860;52.018;8.536;2023-01-10T05:04:07;5.40;99.90
11609;DHT22;5860;52.018;8.536;2023-01-10T05:06:35;5.50;99.90
11609;DHT22;5860;52.018;8.536;2023-01-10T05:09:02;5.50;99.90
11609;DHT22;5860;52.018;8.536;2023-01-10T05:11:29;5.60;99.90
11609;DHT22;5860;52.018;8.536;2023-01-10T05:13:56;5.60;99.90
11609;DHT22;5860;52.018;8.536;2023-01-10T05:16:23;5.60;99.90
11609;DHT22;5860;52.018;8.536;2023-01-10T05:18:51;5.70;99.90
11609;DHT22;5860;52.018;8.536;2023-01-10T05:21:18;5.70;99.90
11609;DHT22;5860;52.018;8.536;2023-01-10T05:23:44;5.70;99.90
11609;DHT22;5860;52.018;8.536;2023-01-10T05:26:18;5.60;99.90
11609;DHT22;5860;52.018;8.536;2023-01-10T05:28:45;5.70;99.90
11609;DHT22;5860;52.018;8.536;2023-01-10T05:31:14;5.70;99.90
11609;DHT22;5860;52.018;8.536;2023-01-10T05:33:46;5.70;99.90
11609;DHT22;5860;52.018;8.536;2023-01-10T05:36:15;5.70;99.90
11609;DHT22;5860;52.018;8.536;2023-01-10T05:38:42;5.70;99.90
11609;DHT22;5860;52.018;8.536;2023-01-10T05:41:09;5.70;99.90
11609;DHT22;5860;52.018;8.536;2023-01-10T05:43:36;5.70;99.90
11609;DHT22;5860;52.018;8.536;2023-01-10T05:46:03;5.70;99.90
11609;DHT22;5860;52.018;8.536;2023-01-10T05:48:30;5.70;99.90
11609;DHT22;5860;52.018;8.536;2023-01-10T05:50:57;5.70;99.90
11609;DHT22;5860;52.018;8.536;2023-01-10T05:53:24;5.70;99.90
11609;DHT22;5860;52.018;8.536;2023-01-10T05:55:59;5.60;99.90
11609;DHT22;5860;52.018;8.536;2023-01-10T05:58:26;5.60;99.90
11609;DHT22;5860;52.018;8.536;2023-01-10T06:00:55;5.50;99.90
11609;DHT22;5860;52.018;8.536;2023-01-10T06:03:22;5.50;99.90
11609;DHT22;5860;52.018;8.536;2023-01-10T06:05:51;5.50;99.90
11609;DHT22;5860;52.018;8.536;2023-01-10T06:08:18;5.50;99.90
11609;DHT22;5860;52.018;8.536;2023-01-10T06:10:44;5.50;99.90
11609;DHT22;5860;52.018;8.536;2023-01-10T06:13:11;5.50;99.90
11609;DHT22;5860;52.018;8.536;2023-01-10T06:15:38;5.50;99.90
11609;DHT22;5860;52.018;8.536;2023-01-10T06:18:06;5.50;99.90
11609;DHT22;5860;52.018;8.536;2023-01-10T06:20:37;5.50;99.90
11609;DHT22;5860;52.018;8.536;2023-01-10T06:23:04;5.50;99.90
11609;DHT22;5860;52.018;8.536;2023-01-10T06:25:33;5.50;99.90
11609;DHT22;5860;52.018;8.536;2023-01-10T06:28:02;5.50;99.90
11609;DHT22;5860;52.018;8.536;2023-01-10T06:30:29;5.50;99.90
11609;DHT22;5860;52.018;8.536;2023-01-10T06:33:06;5.50;99.90
11609;DHT22;5860;52.018;8.536;2023-01-10T06:35:34;5.60;99.90
11609;DHT22;5860;52.018;8.536;2023-01-10T06:38:02;5.60;99.90
11609;DHT22;5860;52.018;8.536;2023-01-10T06:40:29;5.60;99.90
11609;DHT22;5860;52.018;8.536;2023-01-10T06:42:55;5.60;99.90
11609;DHT22;5860;52.018;8.536;2023-01-10T06:45:22;5.70;99.90
11609;DHT22;5860;52.018;8.536;2023-01-10T06:47:49;5.60;99.90
11609;DHT22;5860;52.018;8.536;2023-01-10T06:50:16;5.60;99.90
11609;DHT22;5860;52.018;8.536;2023-01-10T06:52:43;5.70;99.90
11609;DHT22;5860;52.018;8.536;2023-01-10T06:55:10;5.70;99.90
11609;DHT22;5860;52.018;8.536;2023-01-10T06:57:37;5.70;99.90
11609;DHT22;5860;52.018;8.536;2023-01-10T07:00:07;5.80;99.90
11609;DHT22;5860;52.018;8.536;2023-01-10T07:02:34;5.70;99.90
11609;DHT22;5860;52.018;8.536;2023-01-10T07:05:01;5.70;99.90
11609;DHT22;5860;52.018;8.536;2023-01-10T07:07:28;5.80;99.90
11609;DHT22;5860;52.018;8.536;2023-01-10T07:09:55;5.80;99.90
11609;DHT22;5860;52.018;8.536;2023-01-10T07:12:21;5.80;99.90
11609;DHT22;5860;52.018;8.536;2023-01-10T07:14:48;5.80;99.90
11609;DHT22;5860;52.018;8.536;2023-01-10T07:17:15;5.80;99.90
11609;DHT22;5860;52.018;8.536;2023-01-10T07:19:42;5.80;99.90
11609;DHT22;5860;52.018;8.536;2023-01-10T07:22:09;5.80;99.90
11609;DHT22;5860;52.018;8.536;2023-01-10T07:24:36;5.80;99.90
11609;DHT22;5860;52.018;8.536;2023-01-10T07:27:03;5.80;99.90
11609;DHT22;5860;52.018;8.536;2023-01-10T07:29:30;5.80;99.90
11609;DHT22;5860;52.018;8.536;2023-01-10T07:31:57;5.80;99.90
11609;DHT22;5860;52.018;8.536;2023-01-10T07:34:24;5.80;99.90
11609;DHT22;5860;52.018;8.536;2023-01-10T07:36:51;5.80;99.90
11609;DHT22;5860;52.018;8.536;2023-01-10T07:39:18;5.90;99.90
11609;DHT22;5860;52.018;8.536;2023-01-10T07:41:48;5.90;99.90
11609;DHT22;5860;52.018;8.536;2023-01-10T07:44:16;5.80;99.90
11609;DHT22;5860;52.018;8.536;2023-01-10T07:46:42;5.80;99.90
11609;DHT22;5860;52.018;8.536;2023-01-10T07:49:09;5.80;99.90
11609;DHT22;5860;52.018;8.536;2023-01-10T07:51:36;5.80;99.90
11609;DHT22;5860;52.018;8.536;2023-01-10T07:54:03;5.90;99.90
11609;DHT22;5860;52.018;8.536;2023-01-10T07:56:30;5.90;99.90
11609;DHT22;5860;52.018;8.536;2023-01-10T07:58:57;5.90;99.90
11609;DHT22;5860;52.018;8.536;2023-01-10T08:01:24;5.90;99.90
11609;DHT22;5860;52.018;8.536;2023-01-10T08:03:51;5.90;99.90
11609;DHT22;5860;52.018;8.536;2023-01-10T08:06:18;5.90;99.90
11609;DHT22;5860;52.018;8.536;2023-01-10T08:08:45;5.90;99.90
11609;DHT22;5860;52.018;8.536;2023-01-10T08:11:12;5.90;99.90
11609;DHT22;5860;52.018;8.536;2023-01-10T08:13:39;5.90;99.90
11609;DHT22;5860;52.018;8.536;2023-01-10T08:16:07;5.90;99.90
11609;DHT22;5860;52.018;8.536;2023-01-10T08:18:34;6.00;99.90
11609;DHT22;5860;52.018;8.536;2023-01-10T08:21:01;6.00;99.90
11609;DHT22;5860;52.018;8.536;2023-01-10T08:23:28;6.00;99.90
11609;DHT22;5860;52.018;8.536;2023-01-10T08:25:57;6.00;99.90
11609;DHT22;5860;52.018;8.536;2023-01-10T08:28:25;5.90;99.90
11609;DHT22;5860;52.018;8.536;2023-01-10T08:30:52;6.00;99.90
11609;DHT22;5860;52.018;8.536;2023-01-10T08:33:22;6.00;99.90
11609;DHT22;5860;52.018;8.536;2023-01-10T08:35:50;5.90;99.90
11609;DHT22;5860;52.018;8.536;2023-01-10T08:38:17;5.90;99.90
11609;DHT22;5860;52.018;8.536;2023-01-10T08:40:44;5.90;99.90
11609;DHT22;5860;52.018;8.536;2023-01-10T08:43:12;5.90;99.90
11609;DHT22;5860;52.018;8.536;2023-01-10T08:45:39;5.90;99.90
11609;DHT22;5860;52.018;8.536;2023-01-10T08:48:07;5.90;99.90
11609;DHT22;5860;52.018;8.536;2023-01-10T08:50:35;5.90;99.90
11609;DHT22;5860;52.018;8.536;2023-01-10T08:53:02;5.90;99.90
11609;DHT22;5860;52.018;8.536;2023-01-10T08:55:29;5.90;99.90
11609;DHT22;5860;52.018;8.536;2023-01-10T08:58:01;5.90;99.90
11609;DHT22;5860;52.018;8.536;2023-01-10T09:00:28;5.90;99.90
11609;DHT22;5860;52.018;8.536;2023-01-10T09:02:55;5.90;99.90
11609;DHT22;5860;52.018;8.536;2023-01-10T09:05:23;6.00;99.90
11609;DHT22;5860;52.018;8.536;2023-01-10T09:07:58;6.00;99.90
11609;DHT22;5860;52.018;8.536;2023-01-10T09:10:27;6.10;99.90
11609;DHT22;5860;52.018;8.536;2023-01-10T09:12:56;6.00;99.90
11609;DHT22;5860;52.018;8.536;2023-01-10T09:15:30;6.10;99.90
11609;DHT22;5860;52.018;8.536;2023-01-10T09:18:06;6.10;99.90
11609;DHT22;5860;52.018;8.536;2023-01-10T09:20:35;6.10;99.90
11609;DHT22;5860;52.018;8.536;2023-01-10T09:23:13;6.00;99.90
11609;DHT22;5860;52.018;8.536;2023-01-10T09:25:46;6.10;99.90
11609;DHT22;5860;52.018;8.536;2023-01-10T09:28:14;6.20;99.90
11609;DHT22;5860;52.018;8.536;2023-01-10T09:30:41;6.30;99.90
11609;DHT22;5860;52.018;8.536;2023-01-10T09:33:09;6.30;99.90
11609;DHT22;5860;52.018;8.536;2023-01-10T09:35:37;6.30;99.90
11609;DHT22;5860;52.018;8.536;2023-01-10T09:38:06;6.50;99.90
11609;DHT22;5860;52.018;8.536;2023-01-10T09:52:28;6.40;99.90
11609;DHT22;5860;52.018;8.536;2023-01-10T09:54:57;6.40;99.90
11609;DHT22;5860;52.018;8.536;2023-01-10T09:57:26;6.40;99.90
11609;DHT22;5860;52.018;8.536;2023-01-10T09:59:53;6.40;99.90
11609;DHT22;5860;52.018;8.536;2023-01-10T10:02:30;6.40;99.90
11609;DHT22;5860;52.018;8.536;2023-01-10T10:07:37;6.60;99.90
11609;DHT22;5860;52.018;8.536;2023-01-10T10:10:06;6.60;99.90
11609;DHT22;5860;52.018;8.536;2023-01-10T10:15:56;6.70;99.90
11609;DHT22;5860;52.018;8.536;2023-01-10T10:21:18;6.50;99.90
11609;DHT22;5860;52.018;8.536;2023-01-10T10:29:40;6.50;99.90
11609;DHT22;5860;52.018;8.536;2023-01-10T10:32:12;6.50;99.90
11609;DHT22;5860;52.018;8.536;2023-01-10T10:34:50;6.60;99.90
11609;DHT22;5860;52.018;8.536;2023-01-10T10:40:20;6.70;99.90
11609;DHT22;5860;52.018;8.536;2023-01-10T10:42:51;6.70;99.90
11609;DHT22;5860;52.018;8.536;2023-01-10T10:47:55;6.60;99.90
11609;DHT22;5860;52.018;8.536;2023-01-10T10:50:33;6.60;99.90
11609;DHT22;5860;52.018;8.536;2023-01-10T10:53:02;6.60;99.90
11609;DHT22;5860;52.018;8.536;2023-01-10T10:55:34;6.60;99.90
11609;DHT22;5860;52.018;8.536;2023-01-10T10:58:03;6.60;99.90
11609;DHT22;5860;52.018;8.536;2023-01-10T11:00:30;6.60;99.90
11609;DHT22;5860;52.018;8.536;2023-01-10T11:05:49;6.70;99.90
11609;DHT22;5860;52.018;8.536;2023-01-10T11:08:17;6.70;99.90
11609;DHT22;5860;52.018;8.536;2023-01-10T11:10:53;6.70;99.90
11609;DHT22;5860;52.018;8.536;2023-01-10T11:13:34;6.70;99.90
11609;DHT22;5860;52.018;8.536;2023-01-10T11:16:05;6.70;99.90
11609;DHT22;5860;52.018;8.536;2023-01-10T11:18:32;6.80;99.90
11609;DHT22;5860;52.018;8.536;2023-01-10T11:21:12;6.90;99.90
11609;DHT22;5860;52.018;8.536;2023-01-10T11:23:58;6.90;99.90
11609;DHT22;5860;52.018;8.536;2023-01-10T11:26:39;6.90;99.90
11609;DHT22;5860;52.018;8.536;2023-01-10T11:29:41;7.00;99.90
11609;DHT22;5860;52.018;8.536;2023-01-10T11:32:16;7.00;99.90
11609;DHT22;5860;52.018;8.536;2023-01-10T11:34:58;7.00;99.90
11609;DHT22;5860;52.018;8.536;2023-01-10T11:37:28;7.00;99.90
11609;DHT22;5860;52.018;8.536;2023-01-10T11:40:19;7.00;99.90
11609;DHT22;5860;52.018;8.536;2023-01-10T11:42:49;7.10;99.90
11609;DHT22;5860;52.018;8.536;2023-01-10T11:50:24;7.20;99.90
11609;DHT22;5860;52.018;8.536;2023-01-10T11:52:52;7.20;99.90
11609;DHT22;5860;52.018;8.536;2023-01-10T11:55:24;7.20;99.90
11609;DHT22;5860;52.018;8.536;2023-01-10T11:58:04;7.20;99.90
11609;DHT22;5860;52.018;8.536;2023-01-10T12:00:36;7.30;99.90
11609;DHT22;5860;52.018;8.536;2023-01-10T12:05:49;7.30;99.90
11609;DHT22;5860;52.018;8.536;2023-01-10T12:11:03;7.50;99.90
11609;DHT22;5860;52.018;8.536;2023-01-10T12:13:49;7.60;99.90
11609;DHT22;5860;52.018;8.536;2023-01-10T12:18:53;7.40;99.90
11609;DHT22;5860;52.018;8.536;2023-01-10T12:23:57;7.20;99.90
11609;DHT22;5860;52.018;8.536;2023-01-10T12:26:30;7.30;99.90
11609;DHT22;5860;52.018;8.536;2023-01-10T12:29:04;7.30;99.90
11609;DHT22;5860;52.018;8.536;2023-01-10T12:31:36;7.30;99.90
11609;DHT22;5860;52.018;8.536;2023-01-10T12:34:16;7.40;99.90
11609;DHT22;5860;52.018;8.536;2023-01-10T12:36:59;7.40;99.90
11609;DHT22;5860;52.018;8.536;2023-01-10T12:39:37;7.40;99.90
11609;DHT22;5860;52.018;8.536;2023-01-10T12:45:24;7.40;99.90
11609;DHT22;5860;52.018;8.536;2023-01-10T12:48:16;7.20;99.90
11609;DHT22;5860;52.018;8.536;2023-01-10T12:50:59;7.20;99.90
11609;DHT22;5860;52.018;8.536;2023-01-10T12:53:40;7.30;99.90
11609;DHT22;5860;52.018;8.536;2023-01-10T12:56:12;7.30;99.90
11609;DHT22;5860;52.018;8.536;2023-01-10T12:58:50;7.60;99.90
11609;DHT22;5860;52.018;8.536;2023-01-10T13:01:28;7.40;99.90
11609;DHT22;5860;52.018;8.536;2023-01-10T13:04:02;7.50;99.90
11609;DHT22;5860;52.018;8.536;2023-01-10T13:06:36;7.40;99.90
11609;DHT22;5860;52.018;8.536;2023-01-10T13:09:07;7.40;99.90
11609;DHT22;5860;52.018;8.536;2023-01-10T13:11:46;7.40;99.90
11609;DHT22;5860;52.018;8.536;2023-01-10T13:14:21;7.40;99.90
11609;DHT22;5860;52.018;8.536;2023-01-10T13:16:53;7.40;99.90
11609;DHT22;5860;52.018;8.536;2023-01-10T13:19:27;7.50;99.90
11609;DHT22;5860;52.018;8.536;2023-01-10T13:22:22;7.50;99.90
11609;DHT22;5860;52.018;8.536;2023-01-10T13:25:01;7.40;99.90
11609;DHT22;5860;52.018;8.536;2023-01-10T13:27:33;7.40;99.90
11609;DHT22;5860;52.018;8.536;2023-01-10T13:30:02;7.40;99.90
11609;DHT22;5860;52.018;8.536;2023-01-10T13:32:33;7.40;99.90
11609;DHT22;5860;52.018;8.536;2023-01-10T13:35:13;7.40;99.90
11609;DHT22;5860;52.018;8.536;2023-01-10T13:37:43;7.30;99.90
11609;DHT22;5860;52.018;8.536;2023-01-10T13:40:26;7.30;99.90
11609;DHT22;5860;52.018;8.536;2023-01-10T13:56:33;7.20;99.90
11609;DHT22;5860;52.018;8.536;2023-01-10T13:59:03;7.20;99.90
11609;DHT22;5860;52.018;8.536;2023-01-10T14:01:54;7.10;99.90
11609;DHT22;5860;52.018;8.536;2023-01-10T14:04:52;7.10;99.90
11609;DHT22;5860;52.018;8.536;2023-01-10T14:07:29;7.10;99.90
11609;DHT22;5860;52.018;8.536;2023-01-10T14:10:26;7.10;99.90
11609;DHT22;5860;52.018;8.536;2023-01-10T14:13:04;7.00;99.90
11609;DHT22;5860;52.018;8.536;2023-01-10T14:15:45;7.10;99.90
11609;DHT22;5860;52.018;8.536;2023-01-10T14:18:22;7.00;99.90
11609;DHT22;5860;52.018;8.536;2023-01-10T14:21:06;7.00;99.90
11609;DHT22;5860;52.018;8.536;2023-01-10T14:23:36;7.00;99.90
11609;DHT22;5860;52.018;8.536;2023-01-10T14:26:07;7.00;99.90
11609;DHT22;5860;52.018;8.536;2023-01-10T14:28:40;7.00;99.90
11609;DHT22;5860;52.018;8.536;2023-01-10T14:31:18;6.90;99.90
11609;DHT22;5860;52.018;8.536;2023-01-10T14:33:46;6.90;99.90
11609;DHT22;5860;52.018;8.536;2023-01-10T14:36:16;6.90;99.90
11609;DHT22;5860;52.018;8.536;2023-01-10T14:38:44;6.90;99.90
11609;DHT22;5860;52.018;8.536;2023-01-10T14:41:15;6.90;99.90
11609;DHT22;5860;52.018;8.536;2023-01-10T14:43:56;6.90;99.90
11609;DHT22;5860;52.018;8.536;2023-01-10T14:46:50;6.80;99.90
11609;DHT22;5860;52.018;8.536;2023-01-10T14:51:48;6.80;99.90
11609;DHT22;5860;52.018;8.536;2023-01-10T14:54:20;6.80;99.90
11609;DHT22;5860;52.018;8.536;2023-01-10T14:56:51;6.70;99.90
11609;DHT22;5860;52.018;8.536;2023-01-10T14:59:33;6.70;99.90
11609;DHT22;5860;52.018;8.536;2023-01-10T15:05:07;6.70;99.90
11609;DHT22;5860;52.018;8.536;2023-01-10T15:07:38;6.70;99.90
11609;DHT22;5860;52.018;8.536;2023-01-10T15:10:53;6.70;99.90
11609;DHT22;5860;52.018;8.536;2023-01-10T15:13:18;6.70;99.90
11609;DHT22;5860;52.018;8.536;2023-01-10T15:15:47;6.70;99.90
11609;DHT22;5860;52.018;8.536;2023-01-10T15:21:03;6.60;99.90
11609;DHT22;5860;52.018;8.536;2023-01-10T15:23:38;6.60;99.90
11609;DHT22;5860;52.018;8.536;2023-01-10T15:26:12;6.60;99.90
11609;DHT22;5860;52.018;8.536;2023-01-10T15:28:43;6.60;99.90
11609;DHT22;5860;52.018;8.536;2023-01-10T15:31:15;6.60;99.90
11609;DHT22;5860;52.018;8.536;2023-01-10T15:33:44;6.60;99.90
11609;DHT22;5860;52.018;8.536;2023-01-10T15:36:16;6.60;99.90
11609;DHT22;5860;52.018;8.536;2023-01-10T15:38:46;6.60;99.90
11609;DHT22;5860;52.018;8.536;2023-01-10T15:41:19;6.60;99.90
11609;DHT22;5860;52.018;8.536;2023-01-10T15:43:47;6.50;99.90
11609;DHT22;5860;52.018;8.536;2023-01-10T15:46:21;6.60;99.90
11609;DHT22;5860;52.018;8.536;2023-01-10T15:48:57;6.60;99.90
11609;DHT22;5860;52.018;8.536;2023-01-10T15:51:32;6.60;99.90
11609;DHT22;5860;52.018;8.536;2023-01-10T15:54:26;6.50;99.90
11609;DHT22;5860;52.018;8.536;2023-01-10T15:57:00;6.60;99.90
11609;DHT22;5860;52.018;8.536;2023-01-10T15:59:37;6.60;99.90
11609;DHT22;5860;52.018;8.536;2023-01-10T16:04:42;6.60;99.90
11609;DHT22;5860;52.018;8.536;2023-01-10T16:10:05;6.60;99.90
11609;DHT22;5860;52.018;8.536;2023-01-10T16:12:37;6.50;99.90
11609;DHT22;5860;52.018;8.536;2023-01-10T16:15:26;6.50;99.90
11609;DHT22;5860;52.018;8.536;2023-01-10T16:17:53;6.60;99.90
11609;DHT22;5860;52.018;8.536;2023-01-10T16:20:25;6.50;99.90
11609;DHT22;5860;52.018;8.536;2023-01-10T16:22:53;6.60;99.90
11609;DHT22;5860;52.018;8.536;2023-01-10T16:25:36;6.50;99.90
11609;DHT22;5860;52.018;8.536;2023-01-10T16:28:05;6.50;99.90
11609;DHT22;5860;52.018;8.536;2023-01-10T16:30:33;6.50;99.90
11609;DHT22;5860;52.018;8.536;2023-01-10T16:33:20;6.50;99.90
11609;DHT22;5860;52.018;8.536;2023-01-10T16:35:53;6.50;99.90
11609;DHT22;5860;52.018;8.536;2023-01-10T16:38:22;6.50;99.90
11609;DHT22;5860;52.018;8.536;2023-01-10T16:40:58;6.50;99.90
11609;DHT22;5860;52.018;8.536;2023-01-10T16:43:26;6.50;99.90
11609;DHT22;5860;52.018;8.536;2023-01-10T16:45:58;6.50;99.90
11609;DHT22;5860;52.018;8.536;2023-01-10T16:48:28;6.50;99.90
11609;DHT22;5860;52.018;8.536;2023-01-10T16:51:04;6.50;99.90
11609;DHT22;5860;52.018;8.536;2023-01-10T16:53:31;6.50;99.90
11609;DHT22;5860;52.018;8.536;2023-01-10T16:55:58;6.50;99.90
11609;DHT22;5860;52.018;8.536;2023-01-10T16:58:25;6.50;99.90
11609;DHT22;5860;52.018;8.536;2023-01-10T17:00:52;6.60;99.90
11609;DHT22;5860;52.018;8.536;2023-01-10T17:03:21;6.60;99.90
11609;DHT22;5860;52.018;8.536;2023-01-10T17:05:49;6.60;99.90
11609;DHT22;5860;52.018;8.536;2023-01-10T17:08:19;6.60;99.90
11609;DHT22;5860;52.018;8.536;2023-01-10T17:10:49;6.50;99.90
11609;DHT22;5860;52.018;8.536;2023-01-10T17:13:23;6.50;99.90
11609;DHT22;5860;52.018;8.536;2023-01-10T17:15:50;6.50;99.90
11609;DHT22;5860;52.018;8.536;2023-01-10T17:18:17;6.50;99.90
11609;DHT22;5860;52.018;8.536;2023-01-10T17:20:44;6.50;99.90
11609;DHT22;5860;52.018;8.536;2023-01-10T17:23:12;6.50;99.90
11609;DHT22;5860;52.018;8.536;2023-01-10T17:25:40;6.50;99.90
11609;DHT22;5860;52.018;8.536;2023-01-10T17:28:10;6.50;99.90
11609;DHT22;5860;52.018;8.536;2023-01-10T17:30:41;6.50;99.90
11609;DHT22;5860;52.018;8.536;2023-01-10T17:33:09;6.50;99.90
11609;DHT22;5860;52.018;8.536;2023-01-10T17:35:43;6.50;99.90
11609;DHT22;5860;52.018;8.536;2023-01-10T17:38:12;6.50;99.90
11609;DHT22;5860;52.018;8.536;2023-01-10T17:40:44;6.50;99.90
11609;DHT22;5860;52.018;8.536;2023-01-10T17:43:13;6.60;99.90
11609;DHT22;5860;52.018;8.536;2023-01-10T17:45:46;6.60;99.90
11609;DHT22;5860;52.018;8.536;2023-01-10T17:48:14;6.50;99.90
11609;DHT22;5860;52.018;8.536;2023-01-10T17:50:43;6.50;99.90
11609;DHT22;5860;52.018;8.536;2023-01-10T17:53:10;6.50;99.90
11609;DHT22;5860;52.018;8.536;2023-01-10T17:55:45;6.50;99.90
11609;DHT22;5860;52.018;8.536;2023-01-10T17:58:14;6.50;99.90
11609;DHT22;5860;52.018;8.536;2023-01-10T18:00:41;6.50;99.90
11609;DHT22;5860;52.018;8.536;2023-01-10T18:03:09;6.50;99.90
11609;DHT22;5860;52.018;8.536;2023-01-10T18:05:36;6.50;99.90
11609;DHT22;5860;52.018;8.536;2023-01-10T18:08:05;6.50;99.90
11609;DHT22;5860;52.018;8.536;2023-01-10T18:10:33;6.50;99.90
11609;DHT22;5860;52.018;8.536;2023-01-10T18:13:00;6.50;99.90
11609;DHT22;5860;52.018;8.536;2023-01-10T18:15:29;6.50;99.90
11609;DHT22;5860;52.018;8.536;2023-01-10T18:17:56;6.50;99.90
11609;DHT22;5860;52.018;8.536;2023-01-10T18:20:23;6.50;99.90